THY6YK LTFM-EDDF
Flight info
| Callsign | THY6YK |
|---|---|
| Flight time | N/A |
| Altitude | 40000 |
| Route | TUDBU Q26 ETUBA DCT NAVOD DCT MOPUG DCT ARSIN DCT SUBEN DCT AKINI T161 DEBHI DEBHI1C |
| Aircraft | A359/H-SDE2E3GHIJ3J4J5LM1ORWXY/LB1D1 |
Departure
| Time | 2026-02-19 15:35 |
|---|---|
| Airport | İstanbul Airport (LTFM) |
Arrival
| Time | N/A |
|---|---|
| Airport | Frankfurt Main Airport (EDDF) |
| Time | Latitude | Longitude | Altitude | Speed | Heading |
|---|---|---|---|---|---|
| 2026-02-19 14:39 | 41.26430 | 28.73811 | 340 ft | 0 kts | 243° |
| 2026-02-19 15:09 | 41.26433 | 28.73820 | 335 ft | 3 kts | 246° |
| 2026-02-19 15:09 | 41.26440 | 28.73845 | 338 ft | 3 kts | 256° |
| 2026-02-19 15:09 | 41.26444 | 28.73867 | 335 ft | 2 kts | 251° |
| 2026-02-19 15:10 | 41.26451 | 28.73890 | 335 ft | 3 kts | 233° |
| 2026-02-19 15:10 | 41.26465 | 28.73906 | 335 ft | 3 kts | 196° |
| 2026-02-19 15:10 | 41.26483 | 28.73908 | 335 ft | 3 kts | 162° |
| 2026-02-19 15:10 | 41.26502 | 28.73898 | 335 ft | 3 kts | 156° |
| 2026-02-19 15:11 | 41.26512 | 28.73892 | 338 ft | 1 kts | 161° |
| 2026-02-19 15:11 | 41.26515 | 28.73891 | 337 ft | 0 kts | 161° |
| 2026-02-19 15:15 | 41.26512 | 28.73892 | 335 ft | 4 kts | 161° |
| 2026-02-19 15:15 | 41.26467 | 28.73912 | 335 ft | 8 kts | 160° |
| 2026-02-19 15:15 | 41.26433 | 28.73929 | 336 ft | 0 kts | 158° |
| 2026-02-19 15:16 | 41.26425 | 28.73946 | 335 ft | 3 kts | 121° |
| 2026-02-19 15:16 | 41.26447 | 28.74020 | 338 ft | 6 kts | 20° |
| 2026-02-19 15:16 | 41.26498 | 28.74026 | 338 ft | 9 kts | 0° |
| 2026-02-19 15:17 | 41.26570 | 28.74026 | 336 ft | 12 kts | 0° |
| 2026-02-19 15:17 | 41.26659 | 28.74023 | 336 ft | 12 kts | 358° |
| 2026-02-19 15:17 | 41.26747 | 28.74020 | 339 ft | 7 kts | 359° |
| 2026-02-19 15:17 | 41.26808 | 28.74019 | 336 ft | 10 kts | 359° |
| 2026-02-19 15:18 | 41.26889 | 28.74016 | 335 ft | 12 kts | 359° |
| 2026-02-19 15:18 | 41.26972 | 28.74014 | 336 ft | 10 kts | 359° |
| 2026-02-19 15:18 | 41.27040 | 28.73995 | 336 ft | 10 kts | 317° |
| 2026-02-19 15:18 | 41.27051 | 28.73902 | 336 ft | 11 kts | 270° |
| 2026-02-19 15:19 | 41.27050 | 28.73786 | 340 ft | 14 kts | 270° |
| 2026-02-19 15:19 | 41.27049 | 28.73657 | 337 ft | 14 kts | 269° |
| 2026-02-19 15:19 | 41.27047 | 28.73518 | 336 ft | 16 kts | 269° |
| 2026-02-19 15:19 | 41.27044 | 28.73360 | 339 ft | 18 kts | 269° |
| 2026-02-19 15:20 | 41.27042 | 28.73217 | 340 ft | 12 kts | 269° |
| 2026-02-19 15:20 | 41.27094 | 28.73101 | 336 ft | 8 kts | 355° |
| 2026-02-19 15:20 | 41.27165 | 28.73097 | 336 ft | 12 kts | 358° |
| 2026-02-19 15:21 | 41.27257 | 28.73094 | 337 ft | 15 kts | 359° |
| 2026-02-19 15:21 | 41.27370 | 28.73092 | 335 ft | 17 kts | 359° |
| 2026-02-19 15:21 | 41.27484 | 28.73090 | 336 ft | 18 kts | 359° |
| 2026-02-19 15:21 | 41.27574 | 28.73076 | 336 ft | 11 kts | 326° |
| 2026-02-19 15:22 | 41.27680 | 28.72971 | 338 ft | 12 kts | 358° |
| 2026-02-19 15:22 | 41.27775 | 28.72967 | 336 ft | 15 kts | 358° |
| 2026-02-19 15:22 | 41.27883 | 28.72963 | 335 ft | 17 kts | 358° |
| 2026-02-19 15:23 | 41.28013 | 28.72959 | 335 ft | 19 kts | 359° |
| 2026-02-19 15:23 | 41.28144 | 28.72956 | 336 ft | 20 kts | 359° |
| 2026-02-19 15:23 | 41.28290 | 28.72954 | 339 ft | 22 kts | 360° |
| 2026-02-19 15:23 | 41.28450 | 28.72952 | 338 ft | 24 kts | 359° |
| 2026-02-19 15:24 | 41.28953 | 28.72943 | 339 ft | 25 kts | 359° |
| 2026-02-19 15:24 | 41.29131 | 28.72940 | 339 ft | 27 kts | 359° |
| 2026-02-19 15:25 | 41.29305 | 28.72935 | 335 ft | 25 kts | 359° |
| 2026-02-19 15:25 | 41.29439 | 28.72932 | 337 ft | 11 kts | 359° |
| 2026-02-19 15:25 | 41.29494 | 28.72901 | 337 ft | 2 kts | 300° |
| 2026-02-19 15:25 | 41.29494 | 28.72887 | 335 ft | 2 kts | 270° |
| 2026-02-19 15:26 | 41.29493 | 28.72841 | 336 ft | 7 kts | 269° |
| 2026-02-19 15:26 | 41.29493 | 28.72761 | 336 ft | 10 kts | 270° |
| 2026-02-19 15:26 | 41.29491 | 28.72661 | 336 ft | 12 kts | 267° |
| 2026-02-19 15:26 | 41.29488 | 28.72541 | 340 ft | 13 kts | 268° |
| 2026-02-19 15:27 | 41.29480 | 28.72469 | 340 ft | 6 kts | 238° |
| 2026-02-19 15:27 | 41.29441 | 28.72452 | 335 ft | 7 kts | 185° |
| 2026-02-19 15:27 | 41.29365 | 28.72452 | 336 ft | 26 kts | 179° |
| 2026-02-19 15:27 | 41.28932 | 28.72464 | 335 ft | 96 kts | 179° |
| 2026-02-19 15:28 | 41.28142 | 28.72481 | 338 ft | 98 kts | 179° |
| 2026-02-19 15:28 | 41.27383 | 28.72501 | 336 ft | 19 kts | 179° |
| 2026-02-19 15:28 | 41.27293 | 28.72466 | 335 ft | 8 kts | 235° |
| 2026-02-19 15:29 | 41.27286 | 28.72392 | 337 ft | 9 kts | 268° |
| 2026-02-19 15:29 | 41.27295 | 28.72309 | 336 ft | 9 kts | 308° |
| 2026-02-19 15:29 | 41.27365 | 28.72276 | 335 ft | 12 kts | 351° |
| 2026-02-19 15:30 | 41.27613 | 28.72267 | 336 ft | 21 kts | 359° |
| 2026-02-19 15:30 | 41.27768 | 28.72262 | 335 ft | 23 kts | 359° |
| 2026-02-19 15:30 | 41.27939 | 28.72259 | 335 ft | 26 kts | 359° |
| 2026-02-19 15:30 | 41.28125 | 28.72255 | 338 ft | 28 kts | 359° |
| 2026-02-19 15:31 | 41.28322 | 28.72250 | 336 ft | 28 kts | 359° |
| 2026-02-19 15:31 | 41.28658 | 28.72242 | 337 ft | 28 kts | 359° |
| 2026-02-19 15:31 | 41.28851 | 28.72238 | 336 ft | 28 kts | 359° |
| 2026-02-19 15:32 | 41.29051 | 28.72233 | 335 ft | 30 kts | 359° |
| 2026-02-19 15:32 | 41.29377 | 28.72225 | 335 ft | 20 kts | 359° |
| 2026-02-19 15:32 | 41.29415 | 28.72224 | 336 ft | 3 kts | 359° |
| 2026-02-19 15:33 | 41.29487 | 28.72340 | 339 ft | 12 kts | 89° |
| 2026-02-19 15:33 | 41.29485 | 28.72419 | 339 ft | 5 kts | 103° |
| 2026-02-19 15:33 | 41.29461 | 28.72444 | 339 ft | 5 kts | 151° |
| 2026-02-19 15:34 | 41.29177 | 28.72458 | 338 ft | 70 kts | 179° |
| 2026-02-19 15:34 | 41.28465 | 28.72473 | 337 ft | 133 kts | 179° |
| 2026-02-19 15:34 | 41.27384 | 28.72509 | 564 ft | 168 kts | 180° |
| 2026-02-19 15:35 | 41.26212 | 28.72549 | 1366 ft | 169 kts | 181° |
| 2026-02-19 15:35 | 41.25050 | 28.72613 | 2262 ft | 169 kts | 181° |
| 2026-02-19 15:35 | 41.23833 | 28.72677 | 2768 ft | 187 kts | 182° |
| 2026-02-19 15:35 | 41.22470 | 28.72719 | 3116 ft | 205 kts | 182° |
| 2026-02-19 15:36 | 41.20978 | 28.72758 | 3467 ft | 223 kts | 184° |
| 2026-02-19 15:36 | 41.18351 | 28.70754 | 4598 ft | 238 kts | 243° |
| 2026-02-19 15:36 | 41.18010 | 28.68558 | 5139 ft | 250 kts | 265° |
| 2026-02-19 15:37 | 41.17997 | 28.66229 | 5838 ft | 254 kts | 269° |
| 2026-02-19 15:37 | 41.18012 | 28.63881 | 6606 ft | 255 kts | 270° |
| 2026-02-19 15:37 | 41.18020 | 28.61550 | 7282 ft | 257 kts | 271° |
| 2026-02-19 15:37 | 41.18283 | 28.59203 | 7951 ft | 260 kts | 287° |
| 2026-02-19 15:38 | 41.19194 | 28.57125 | 8657 ft | 265 kts | 310° |
| 2026-02-19 15:38 | 41.20709 | 28.55717 | 9382 ft | 272 kts | 334° |
| 2026-02-19 15:38 | 41.22587 | 28.55222 | 10104 ft | 280 kts | 352° |
| 2026-02-19 15:38 | 41.24568 | 28.55162 | 10472 ft | 294 kts | 355° |
| 2026-02-19 15:39 | 41.26672 | 28.55162 | 10752 ft | 310 kts | 356° |
| 2026-02-19 15:39 | 41.28878 | 28.55150 | 11033 ft | 324 kts | 355° |
| 2026-02-19 15:39 | 41.31184 | 28.55218 | 11310 ft | 340 kts | 360° |
| 2026-02-19 15:39 | 41.33584 | 28.55533 | 11583 ft | 353 kts | 2° |
| 2026-02-19 15:40 | 41.36050 | 28.55919 | 11990 ft | 359 kts | 2° |
| 2026-02-19 15:40 | 41.41063 | 28.56703 | 13012 ft | 367 kts | 2° |
| 2026-02-19 15:41 | 41.46141 | 28.57107 | 14017 ft | 369 kts | 354° |
| 2026-02-19 15:41 | 41.48712 | 28.57057 | 14487 ft | 371 kts | 354° |
| 2026-02-19 15:41 | 41.51295 | 28.56995 | 15005 ft | 372 kts | 354° |
| 2026-02-19 15:41 | 41.53896 | 28.56935 | 15484 ft | 374 kts | 354° |
| 2026-02-19 15:42 | 41.56505 | 28.56878 | 15963 ft | 376 kts | 354° |
| 2026-02-19 15:42 | 41.59130 | 28.56822 | 16443 ft | 378 kts | 354° |
| 2026-02-19 15:42 | 41.61767 | 28.56766 | 16927 ft | 380 kts | 354° |
| 2026-02-19 15:42 | 41.64421 | 28.56711 | 17402 ft | 382 kts | 354° |
| 2026-02-19 15:43 | 41.67087 | 28.56651 | 17876 ft | 384 kts | 353° |
| 2026-02-19 15:43 | 41.69722 | 28.56250 | 18305 ft | 380 kts | 342° |
| 2026-02-19 15:43 | 41.72161 | 28.54992 | 18703 ft | 374 kts | 327° |
| 2026-02-19 15:43 | 41.74207 | 28.52896 | 19070 ft | 370 kts | 311° |
| 2026-02-19 15:44 | 41.75722 | 28.50138 | 19440 ft | 368 kts | 296° |
| 2026-02-19 15:44 | 41.76934 | 28.43522 | 20192 ft | 371 kts | 275° |
| 2026-02-19 15:44 | 41.77110 | 28.40065 | 20548 ft | 373 kts | 274° |
| 2026-02-19 15:45 | 41.77275 | 28.36590 | 20934 ft | 375 kts | 275° |
| 2026-02-19 15:45 | 41.77446 | 28.33143 | 21313 ft | 376 kts | 275° |
| 2026-02-19 15:45 | 41.77623 | 28.29637 | 21681 ft | 378 kts | 275° |
| 2026-02-19 15:45 | 41.77807 | 28.26069 | 22064 ft | 380 kts | 275° |
| 2026-02-19 15:46 | 41.78032 | 28.22528 | 22410 ft | 382 kts | 278° |
| 2026-02-19 15:46 | 41.78624 | 28.19062 | 22755 ft | 384 kts | 288° |
| 2026-02-19 15:46 | 41.79722 | 28.15844 | 23086 ft | 387 kts | 297° |
| 2026-02-19 15:46 | 41.81087 | 28.12720 | 23421 ft | 390 kts | 299° |
| 2026-02-19 15:47 | 41.82495 | 28.09598 | 23758 ft | 392 kts | 299° |
| 2026-02-19 15:47 | 41.83905 | 28.06464 | 24036 ft | 393 kts | 299° |
| 2026-02-19 15:47 | 41.85315 | 28.03316 | 24343 ft | 395 kts | 298° |
| 2026-02-19 15:47 | 41.86727 | 28.00156 | 24644 ft | 396 kts | 299° |
| 2026-02-19 15:48 | 41.88142 | 27.96980 | 24949 ft | 397 kts | 298° |
| 2026-02-19 15:48 | 41.90965 | 27.90613 | 25558 ft | 399 kts | 298° |
| 2026-02-19 15:48 | 41.92395 | 27.87384 | 25882 ft | 400 kts | 298° |
| 2026-02-19 15:49 | 41.93816 | 27.84170 | 26211 ft | 402 kts | 298° |
| 2026-02-19 15:49 | 41.95245 | 27.80939 | 26574 ft | 403 kts | 299° |
| 2026-02-19 15:49 | 41.96807 | 27.77814 | 26931 ft | 406 kts | 304° |
| 2026-02-19 15:49 | 41.98663 | 27.74926 | 27294 ft | 410 kts | 309° |
| 2026-02-19 15:50 | 42.00627 | 27.72136 | 27663 ft | 412 kts | 310° |
| 2026-02-19 15:50 | 42.02648 | 27.69373 | 28042 ft | 414 kts | 311° |
| 2026-02-19 15:50 | 42.04690 | 27.66621 | 28432 ft | 416 kts | 311° |
| 2026-02-19 15:50 | 42.06737 | 27.63864 | 28821 ft | 418 kts | 311° |
| 2026-02-19 15:51 | 42.08657 | 27.60936 | 29209 ft | 416 kts | 304° |
| 2026-02-19 15:51 | 42.10218 | 27.57665 | 29590 ft | 416 kts | 297° |
| 2026-02-19 15:51 | 42.11607 | 27.54247 | 29997 ft | 417 kts | 296° |
| 2026-02-19 15:51 | 42.12979 | 27.50789 | 30369 ft | 419 kts | 296° |
| 2026-02-19 15:52 | 42.14346 | 27.47322 | 30694 ft | 421 kts | 296° |
| 2026-02-19 15:52 | 42.17083 | 27.40323 | 31130 ft | 425 kts | 296° |
| 2026-02-19 15:52 | 42.18513 | 27.36821 | 31504 ft | 427 kts | 299° |
| 2026-02-19 15:53 | 42.20177 | 27.33510 | 31890 ft | 428 kts | 303° |
| 2026-02-19 15:53 | 42.21954 | 27.30286 | 32254 ft | 429 kts | 305° |
| 2026-02-19 15:53 | 42.23790 | 27.27090 | 32550 ft | 431 kts | 306° |
| 2026-02-19 15:53 | 42.25648 | 27.23921 | 32874 ft | 431 kts | 306° |
| 2026-02-19 15:54 | 42.27515 | 27.20760 | 33340 ft | 429 kts | 306° |
| 2026-02-19 15:54 | 42.29368 | 27.17622 | 33811 ft | 426 kts | 306° |
| 2026-02-19 15:54 | 42.33015 | 27.11409 | 34605 ft | 423 kts | 306° |
| 2026-02-19 15:55 | 42.34829 | 27.08301 | 34972 ft | 421 kts | 306° |
| 2026-02-19 15:55 | 42.36636 | 27.05196 | 35379 ft | 419 kts | 305° |
| 2026-02-19 15:55 | 42.38463 | 27.02050 | 35711 ft | 418 kts | 305° |
| 2026-02-19 15:55 | 42.40231 | 26.99003 | 36038 ft | 418 kts | 305° |
| 2026-02-19 15:56 | 42.42025 | 26.95906 | 36370 ft | 417 kts | 304° |
| 2026-02-19 15:56 | 42.45599 | 26.89731 | 37008 ft | 416 kts | 304° |
| 2026-02-19 15:56 | 42.47380 | 26.86650 | 37317 ft | 415 kts | 304° |
| 2026-02-19 15:57 | 42.49158 | 26.83569 | 37586 ft | 415 kts | 304° |
| 2026-02-19 15:57 | 42.50938 | 26.80484 | 37871 ft | 415 kts | 304° |
| 2026-02-19 15:57 | 42.54480 | 26.74335 | 38540 ft | 412 kts | 303° |
| 2026-02-19 15:58 | 42.56238 | 26.71280 | 38840 ft | 410 kts | 303° |
| 2026-02-19 15:58 | 42.57992 | 26.68226 | 39011 ft | 411 kts | 303° |
| 2026-02-19 15:58 | 42.59749 | 26.65163 | 39145 ft | 412 kts | 303° |
| 2026-02-19 15:58 | 42.61512 | 26.62085 | 39294 ft | 413 kts | 303° |
| 2026-02-19 15:59 | 42.63275 | 26.59004 | 39425 ft | 414 kts | 303° |
| 2026-02-19 15:59 | 42.65044 | 26.55912 | 39555 ft | 415 kts | 303° |
| 2026-02-19 15:59 | 42.66815 | 26.52812 | 39691 ft | 416 kts | 303° |
| 2026-02-19 15:59 | 42.68586 | 26.49712 | 39847 ft | 416 kts | 303° |
| 2026-02-19 16:00 | 42.70364 | 26.46596 | 39983 ft | 417 kts | 303° |
| 2026-02-19 16:00 | 42.73920 | 26.40350 | 40089 ft | 418 kts | 303° |
| 2026-02-19 16:01 | 42.77478 | 26.34089 | 40085 ft | 418 kts | 303° |
| 2026-02-19 16:01 | 42.81040 | 26.27806 | 40084 ft | 420 kts | 303° |
| 2026-02-19 16:02 | 42.84605 | 26.21506 | 40075 ft | 420 kts | 303° |
| 2026-02-19 16:02 | 42.89949 | 26.12037 | 40072 ft | 419 kts | 303° |
| 2026-02-19 16:03 | 42.93503 | 26.05724 | 40063 ft | 419 kts | 303° |
| 2026-02-19 16:03 | 42.97031 | 25.99442 | 40043 ft | 420 kts | 303° |
| 2026-02-19 16:04 | 43.02350 | 25.89945 | 40029 ft | 420 kts | 303° |
| 2026-02-19 16:05 | 43.05891 | 25.83606 | 40028 ft | 420 kts | 302° |
| 2026-02-19 16:05 | 43.09433 | 25.77254 | 40020 ft | 420 kts | 302° |
| 2026-02-19 16:06 | 43.12992 | 25.70855 | 40021 ft | 420 kts | 302° |
| 2026-02-19 16:06 | 43.16498 | 25.64538 | 40020 ft | 419 kts | 302° |
| 2026-02-19 16:07 | 43.19990 | 25.58232 | 40021 ft | 419 kts | 302° |
| 2026-02-19 16:07 | 43.23516 | 25.51853 | 40033 ft | 419 kts | 302° |
| 2026-02-19 16:08 | 43.27031 | 25.45479 | 40021 ft | 419 kts | 302° |
| 2026-02-19 16:08 | 43.32292 | 25.35912 | 40019 ft | 418 kts | 302° |
| 2026-02-19 16:09 | 43.35796 | 25.29525 | 40019 ft | 419 kts | 302° |
| 2026-02-19 16:09 | 43.39301 | 25.23120 | 40018 ft | 419 kts | 302° |
| 2026-02-19 16:10 | 43.42804 | 25.16705 | 40013 ft | 419 kts | 302° |
| 2026-02-19 16:10 | 43.46302 | 25.10285 | 40010 ft | 419 kts | 302° |
| 2026-02-19 16:11 | 43.49797 | 25.03859 | 40012 ft | 420 kts | 301° |
| 2026-02-19 16:11 | 43.53297 | 24.97407 | 40003 ft | 421 kts | 301° |
| 2026-02-19 16:12 | 43.58549 | 24.87699 | 40008 ft | 421 kts | 301° |
| 2026-02-19 16:13 | 43.62039 | 24.81234 | 40003 ft | 420 kts | 301° |
| 2026-02-19 16:13 | 43.65528 | 24.74752 | 40008 ft | 421 kts | 301° |
| 2026-02-19 16:14 | 43.69021 | 24.68248 | 40001 ft | 422 kts | 301° |
| 2026-02-19 16:14 | 43.72509 | 24.61741 | 40003 ft | 422 kts | 301° |
| 2026-02-19 16:15 | 43.76111 | 24.55321 | 40003 ft | 425 kts | 306° |
| 2026-02-19 16:15 | 43.80073 | 24.49236 | 40010 ft | 426 kts | 307° |
| 2026-02-19 16:16 | 43.84099 | 24.43197 | 40006 ft | 427 kts | 307° |
| 2026-02-19 16:16 | 43.90152 | 24.34127 | 40002 ft | 427 kts | 307° |
| 2026-02-19 16:17 | 43.94171 | 24.28073 | 40006 ft | 427 kts | 307° |
| 2026-02-19 16:17 | 43.97510 | 24.23029 | 39999 ft | 427 kts | 307° |
| 2026-02-19 16:18 | 44.02176 | 24.15961 | 39998 ft | 427 kts | 306° |
| 2026-02-19 16:18 | 44.06186 | 24.09876 | 40004 ft | 427 kts | 306° |
| 2026-02-19 16:19 | 44.09545 | 24.04767 | 40002 ft | 427 kts | 306° |
| 2026-02-19 16:19 | 44.13553 | 23.98660 | 40002 ft | 428 kts | 306° |
| 2026-02-19 16:20 | 44.19569 | 23.89468 | 40004 ft | 428 kts | 306° |
| 2026-02-19 16:21 | 44.23580 | 23.83322 | 39998 ft | 428 kts | 306° |
| 2026-02-19 16:21 | 44.27588 | 23.77171 | 40007 ft | 428 kts | 306° |
| 2026-02-19 16:22 | 44.31595 | 23.71004 | 39994 ft | 429 kts | 306° |
| 2026-02-19 16:22 | 44.35604 | 23.64821 | 39995 ft | 429 kts | 306° |
| 2026-02-19 16:23 | 44.39612 | 23.58626 | 39995 ft | 430 kts | 306° |
| 2026-02-19 16:23 | 44.43619 | 23.52420 | 39997 ft | 430 kts | 306° |
| 2026-02-19 16:24 | 44.47621 | 23.46206 | 39998 ft | 430 kts | 306° |
| 2026-02-19 16:24 | 44.53608 | 23.36887 | 40016 ft | 431 kts | 306° |
| 2026-02-19 16:25 | 44.57610 | 23.30640 | 40007 ft | 431 kts | 306° |
| 2026-02-19 16:25 | 44.61613 | 23.24379 | 40010 ft | 431 kts | 306° |
| 2026-02-19 16:26 | 44.65605 | 23.18119 | 40008 ft | 431 kts | 306° |
| 2026-02-19 16:26 | 44.69602 | 23.11836 | 40012 ft | 431 kts | 306° |
| 2026-02-19 16:27 | 44.73588 | 23.05557 | 40010 ft | 431 kts | 306° |
| 2026-02-19 16:27 | 44.77576 | 22.99263 | 40013 ft | 431 kts | 306° |
| 2026-02-19 16:28 | 44.83549 | 22.89807 | 40034 ft | 431 kts | 306° |
| 2026-02-19 16:29 | 44.87525 | 22.83495 | 40012 ft | 431 kts | 306° |
| 2026-02-19 16:29 | 44.91501 | 22.77170 | 40014 ft | 431 kts | 306° |
| 2026-02-19 16:30 | 44.95474 | 22.70835 | 40025 ft | 431 kts | 306° |
| 2026-02-19 16:30 | 44.99445 | 22.64487 | 40016 ft | 432 kts | 305° |
| 2026-02-19 16:31 | 45.03421 | 22.58118 | 40004 ft | 432 kts | 305° |
| 2026-02-19 16:31 | 45.07393 | 22.51746 | 40005 ft | 432 kts | 305° |
| 2026-02-19 16:32 | 45.11359 | 22.45364 | 39984 ft | 432 kts | 305° |
| 2026-02-19 16:32 | 45.17278 | 22.35807 | 39963 ft | 433 kts | 305° |
| 2026-02-19 16:33 | 45.21248 | 22.29381 | 39956 ft | 433 kts | 305° |
| 2026-02-19 16:33 | 45.25218 | 22.22942 | 39941 ft | 433 kts | 305° |
| 2026-02-19 16:34 | 45.29180 | 22.16500 | 39935 ft | 433 kts | 305° |
| 2026-02-19 16:34 | 45.33133 | 22.10057 | 39918 ft | 433 kts | 305° |
| 2026-02-19 16:35 | 45.37083 | 22.03602 | 39899 ft | 432 kts | 304° |
| 2026-02-19 16:35 | 45.41031 | 21.97139 | 39895 ft | 433 kts | 304° |
| 2026-02-19 16:36 | 45.46941 | 21.87433 | 39893 ft | 432 kts | 304° |
| 2026-02-19 16:37 | 45.52856 | 21.77686 | 39868 ft | 434 kts | 304° |
| 2026-02-19 16:37 | 45.56798 | 21.71172 | 39867 ft | 434 kts | 304° |
| 2026-02-19 16:38 | 45.60735 | 21.64652 | 39856 ft | 434 kts | 304° |
| 2026-02-19 16:38 | 45.64668 | 21.58121 | 39846 ft | 434 kts | 304° |
| 2026-02-19 16:39 | 45.68610 | 21.51560 | 39856 ft | 435 kts | 304° |
| 2026-02-19 16:39 | 45.72545 | 21.44995 | 39866 ft | 435 kts | 304° |
| 2026-02-19 16:40 | 45.78443 | 21.35128 | 39858 ft | 434 kts | 304° |
| 2026-02-19 16:41 | 45.82362 | 21.28552 | 39863 ft | 433 kts | 304° |
| 2026-02-19 16:41 | 45.86271 | 21.21975 | 39855 ft | 433 kts | 304° |
| 2026-02-19 16:42 | 45.90182 | 21.15381 | 39852 ft | 433 kts | 304° |
| 2026-02-19 16:42 | 45.94085 | 21.08783 | 39847 ft | 433 kts | 304° |
| 2026-02-19 16:43 | 45.97959 | 21.02220 | 39849 ft | 433 kts | 304° |
| 2026-02-19 16:43 | 46.01855 | 20.95604 | 39841 ft | 434 kts | 304° |
| 2026-02-19 16:44 | 46.05746 | 20.88980 | 39836 ft | 434 kts | 304° |
| 2026-02-19 16:44 | 46.11573 | 20.79032 | 39831 ft | 433 kts | 304° |
| 2026-02-19 16:45 | 46.15418 | 20.72351 | 39836 ft | 431 kts | 301° |
| 2026-02-19 16:45 | 46.18567 | 20.65078 | 39816 ft | 426 kts | 294° |
| 2026-02-19 16:46 | 46.21442 | 20.57614 | 39819 ft | 426 kts | 294° |
| 2026-02-19 16:46 | 46.24263 | 20.50114 | 39816 ft | 425 kts | 293° |
| 2026-02-19 16:47 | 46.27088 | 20.42605 | 39816 ft | 425 kts | 294° |
| 2026-02-19 16:47 | 46.29925 | 20.35071 | 39812 ft | 430 kts | 294° |
| 2026-02-19 16:48 | 46.34268 | 20.23512 | 39814 ft | 441 kts | 294° |
| 2026-02-19 16:49 | 46.37199 | 20.15698 | 39809 ft | 440 kts | 294° |
| 2026-02-19 16:49 | 46.40089 | 20.07983 | 39806 ft | 433 kts | 293° |
| 2026-02-19 16:50 | 46.42949 | 20.00310 | 39811 ft | 432 kts | 293° |
| 2026-02-19 16:50 | 46.45798 | 19.92633 | 39804 ft | 433 kts | 293° |
| 2026-02-19 16:51 | 46.48647 | 19.84938 | 39801 ft | 433 kts | 293° |
| 2026-02-19 16:51 | 46.51491 | 19.77238 | 39807 ft | 433 kts | 293° |
| 2026-02-19 16:52 | 46.54331 | 19.69528 | 39802 ft | 434 kts | 294° |
| 2026-02-19 16:52 | 46.58610 | 19.57866 | 39796 ft | 437 kts | 294° |
| 2026-02-19 16:53 | 46.62888 | 19.46162 | 39795 ft | 437 kts | 294° |
| 2026-02-19 16:54 | 46.65734 | 19.38346 | 39817 ft | 437 kts | 294° |
| 2026-02-19 16:54 | 46.68576 | 19.30515 | 39800 ft | 438 kts | 294° |
| 2026-02-19 16:55 | 46.71422 | 19.22653 | 39797 ft | 439 kts | 294° |
| 2026-02-19 16:55 | 46.74261 | 19.14787 | 39793 ft | 438 kts | 294° |
| 2026-02-19 16:56 | 46.77095 | 19.06913 | 39793 ft | 438 kts | 293° |
| 2026-02-19 16:56 | 46.81342 | 18.95065 | 39801 ft | 440 kts | 294° |
| 2026-02-19 16:57 | 46.84171 | 18.87145 | 39798 ft | 440 kts | 293° |
| 2026-02-19 16:57 | 46.86998 | 18.79206 | 39794 ft | 440 kts | 293° |
| 2026-02-19 16:58 | 46.89815 | 18.71271 | 39797 ft | 440 kts | 294° |
| 2026-02-19 16:58 | 46.92630 | 18.63317 | 39796 ft | 441 kts | 294° |
| 2026-02-19 16:59 | 46.95449 | 18.55328 | 39794 ft | 442 kts | 293° |
| 2026-02-19 16:59 | 46.98244 | 18.47385 | 39794 ft | 442 kts | 293° |
| 2026-02-19 17:00 | 47.02451 | 18.35385 | 39798 ft | 442 kts | 293° |
| 2026-02-19 17:01 | 47.05263 | 18.27330 | 39798 ft | 445 kts | 293° |
| 2026-02-19 17:01 | 47.08081 | 18.19234 | 39791 ft | 446 kts | 293° |
| 2026-02-19 17:02 | 47.10884 | 18.11159 | 39790 ft | 446 kts | 293° |
| 2026-02-19 17:02 | 47.13692 | 18.03045 | 39789 ft | 446 kts | 293° |
| 2026-02-19 17:03 | 47.16495 | 17.94917 | 39791 ft | 446 kts | 293° |
| 2026-02-19 17:03 | 47.19299 | 17.86761 | 39782 ft | 447 kts | 293° |
| 2026-02-19 17:04 | 47.21645 | 17.79917 | 39780 ft | 447 kts | 293° |
| 2026-02-19 17:04 | 47.25818 | 17.67702 | 39775 ft | 447 kts | 293° |
| 2026-02-19 17:05 | 47.28610 | 17.59498 | 39778 ft | 449 kts | 293° |
| 2026-02-19 17:05 | 47.31404 | 17.51256 | 39778 ft | 450 kts | 293° |
| 2026-02-19 17:06 | 47.34202 | 17.42982 | 39776 ft | 450 kts | 293° |
| 2026-02-19 17:06 | 47.36989 | 17.34716 | 39771 ft | 450 kts | 293° |
| 2026-02-19 17:07 | 47.39768 | 17.26443 | 39784 ft | 450 kts | 293° |
| 2026-02-19 17:07 | 47.42548 | 17.18140 | 39778 ft | 451 kts | 293° |
| 2026-02-19 17:08 | 47.46711 | 17.05660 | 39775 ft | 452 kts | 293° |
| 2026-02-19 17:09 | 47.49481 | 16.97323 | 39789 ft | 452 kts | 293° |
| 2026-02-19 17:09 | 47.52243 | 16.88978 | 39784 ft | 451 kts | 294° |
| 2026-02-19 17:10 | 47.55000 | 16.80623 | 39789 ft | 452 kts | 294° |
| 2026-02-19 17:10 | 47.57729 | 16.72236 | 39800 ft | 452 kts | 291° |
| 2026-02-19 17:11 | 47.60100 | 16.63634 | 39787 ft | 451 kts | 289° |
| 2026-02-19 17:11 | 47.62349 | 16.54966 | 39799 ft | 451 kts | 289° |
| 2026-02-19 17:12 | 47.64636 | 16.46315 | 39798 ft | 451 kts | 289° |
| 2026-02-19 17:12 | 47.68119 | 16.33363 | 39801 ft | 451 kts | 290° |
| 2026-02-19 17:13 | 47.70446 | 16.24709 | 39801 ft | 451 kts | 290° |
| 2026-02-19 17:13 | 47.72761 | 16.16058 | 39800 ft | 451 kts | 289° |
| 2026-02-19 17:14 | 47.75068 | 16.07397 | 39797 ft | 451 kts | 289° |
| 2026-02-19 17:14 | 47.77369 | 15.98728 | 39787 ft | 451 kts | 289° |
| 2026-02-19 17:15 | 47.79662 | 15.90052 | 39788 ft | 451 kts | 289° |
| 2026-02-19 17:15 | 47.81952 | 15.81363 | 39787 ft | 451 kts | 289° |
| 2026-02-19 17:16 | 47.85374 | 15.68308 | 39771 ft | 452 kts | 289° |
| 2026-02-19 17:17 | 47.87635 | 15.59642 | 39769 ft | 452 kts | 289° |
| 2026-02-19 17:17 | 47.89905 | 15.50914 | 39757 ft | 452 kts | 289° |
| 2026-02-19 17:18 | 47.92168 | 15.42174 | 39755 ft | 452 kts | 289° |
| 2026-02-19 17:18 | 47.94427 | 15.33419 | 39749 ft | 453 kts | 289° |
| 2026-02-19 17:19 | 47.96684 | 15.24638 | 39739 ft | 453 kts | 289° |
| 2026-02-19 17:19 | 47.98935 | 15.15846 | 39739 ft | 453 kts | 289° |
| 2026-02-19 17:20 | 48.01179 | 15.07045 | 39739 ft | 453 kts | 288° |
| 2026-02-19 17:20 | 48.04533 | 14.93832 | 39738 ft | 454 kts | 288° |
| 2026-02-19 17:21 | 48.06764 | 14.85000 | 39741 ft | 454 kts | 288° |
| 2026-02-19 17:21 | 48.08990 | 14.76154 | 39743 ft | 454 kts | 288° |
| 2026-02-19 17:22 | 48.11209 | 14.67301 | 39746 ft | 454 kts | 288° |
| 2026-02-19 17:22 | 48.13421 | 14.58437 | 39755 ft | 456 kts | 288° |
| 2026-02-19 17:23 | 48.15634 | 14.49536 | 39762 ft | 457 kts | 288° |
| 2026-02-19 17:23 | 48.17845 | 14.40603 | 39772 ft | 457 kts | 289° |
| 2026-02-19 17:24 | 48.21089 | 14.27445 | 39774 ft | 456 kts | 288° |
| 2026-02-19 17:25 | 48.23304 | 14.18412 | 39774 ft | 457 kts | 288° |
| 2026-02-19 17:25 | 48.25491 | 14.09456 | 39774 ft | 458 kts | 288° |
| 2026-02-19 17:26 | 48.27677 | 14.00469 | 39757 ft | 458 kts | 288° |
| 2026-02-19 17:26 | 48.29856 | 13.91477 | 39756 ft | 458 kts | 288° |
| 2026-02-19 17:27 | 48.32028 | 13.82473 | 39757 ft | 459 kts | 288° |
| 2026-02-19 17:27 | 48.34197 | 13.73446 | 39757 ft | 460 kts | 288° |
| 2026-02-19 17:28 | 48.36366 | 13.64380 | 39758 ft | 461 kts | 288° |
| 2026-02-19 17:28 | 48.39608 | 13.50764 | 39762 ft | 461 kts | 288° |
| 2026-02-19 17:29 | 48.42835 | 13.37120 | 39763 ft | 462 kts | 288° |
| 2026-02-19 17:30 | 48.45040 | 13.28014 | 39765 ft | 463 kts | 290° |
| 2026-02-19 17:30 | 48.47445 | 13.19014 | 39766 ft | 463 kts | 291° |
| 2026-02-19 17:31 | 48.49855 | 13.10076 | 39767 ft | 463 kts | 290° |
| 2026-02-19 17:31 | 48.52242 | 13.01058 | 39767 ft | 464 kts | 290° |
| 2026-02-19 17:32 | 48.54609 | 12.92000 | 39768 ft | 464 kts | 290° |
| 2026-02-19 17:32 | 48.58142 | 12.78387 | 39770 ft | 464 kts | 290° |
| 2026-02-19 17:33 | 48.60488 | 12.69307 | 39779 ft | 465 kts | 290° |
| 2026-02-19 17:33 | 48.62828 | 12.60218 | 39768 ft | 464 kts | 290° |
| 2026-02-19 17:34 | 48.65162 | 12.51120 | 39768 ft | 464 kts | 290° |
| 2026-02-19 17:34 | 48.67488 | 12.42013 | 39766 ft | 464 kts | 290° |
| 2026-02-19 17:35 | 48.69803 | 12.32911 | 39771 ft | 464 kts | 290° |
| 2026-02-19 17:35 | 48.72116 | 12.23782 | 39763 ft | 464 kts | 290° |
| 2026-02-19 17:36 | 48.75182 | 12.09873 | 39766 ft | 464 kts | 281° |
| 2026-02-19 17:37 | 48.76348 | 12.00250 | 39765 ft | 464 kts | 279° |
| 2026-02-19 17:37 | 48.77376 | 11.90593 | 39764 ft | 464 kts | 278° |
| 2026-02-19 17:38 | 48.78382 | 11.80947 | 39769 ft | 465 kts | 278° |
| 2026-02-19 17:38 | 48.79398 | 11.71271 | 39772 ft | 465 kts | 279° |
| 2026-02-19 17:39 | 48.80417 | 11.61572 | 39773 ft | 466 kts | 279° |
| 2026-02-19 17:39 | 48.81428 | 11.51868 | 39774 ft | 466 kts | 278° |
| 2026-02-19 17:40 | 48.82424 | 11.42163 | 39774 ft | 466 kts | 278° |
| 2026-02-19 17:40 | 48.84244 | 11.27765 | 39528 ft | 466 kts | 288° |
| 2026-02-19 17:41 | 48.85508 | 11.23167 | 39299 ft | 467 kts | 296° |
| 2026-02-19 17:41 | 48.87183 | 11.19015 | 39078 ft | 469 kts | 305° |
| 2026-02-19 17:41 | 48.89304 | 11.15229 | 38717 ft | 469 kts | 313° |
| 2026-02-19 17:41 | 48.91595 | 11.11808 | 38061 ft | 469 kts | 315° |
| 2026-02-19 17:42 | 48.94027 | 11.08388 | 37337 ft | 469 kts | 316° |
| 2026-02-19 17:42 | 48.96446 | 11.05070 | 36674 ft | 469 kts | 316° |
| 2026-02-19 17:42 | 48.98848 | 11.01798 | 35999 ft | 469 kts | 316° |
| 2026-02-19 17:42 | 49.01208 | 10.98555 | 35326 ft | 471 kts | 316° |
| 2026-02-19 17:43 | 49.03657 | 10.95155 | 34586 ft | 473 kts | 316° |
| 2026-02-19 17:43 | 49.06082 | 10.91762 | 33762 ft | 477 kts | 315° |
| 2026-02-19 17:43 | 49.08542 | 10.88299 | 32808 ft | 481 kts | 316° |
| 2026-02-19 17:43 | 49.10996 | 10.84840 | 31923 ft | 484 kts | 316° |
| 2026-02-19 17:44 | 49.13481 | 10.81322 | 31041 ft | 487 kts | 316° |
| 2026-02-19 17:44 | 49.18483 | 10.74218 | 29043 ft | 496 kts | 316° |
| 2026-02-19 17:44 | 49.21009 | 10.70589 | 28165 ft | 496 kts | 315° |
| 2026-02-19 17:45 | 49.23400 | 10.66847 | 27446 ft | 491 kts | 313° |
| 2026-02-19 17:45 | 49.25746 | 10.63088 | 26745 ft | 487 kts | 313° |
| 2026-02-19 17:45 | 49.28075 | 10.59365 | 26070 ft | 483 kts | 314° |
| 2026-02-19 17:45 | 49.30393 | 10.55675 | 25375 ft | 479 kts | 314° |
| 2026-02-19 17:46 | 49.32695 | 10.52018 | 24699 ft | 476 kts | 314° |
| 2026-02-19 17:46 | 49.34983 | 10.48372 | 24033 ft | 472 kts | 313° |
| 2026-02-19 17:46 | 49.37047 | 10.44506 | 23488 ft | 466 kts | 306° |
| 2026-02-19 17:46 | 49.38916 | 10.40472 | 23116 ft | 463 kts | 305° |
| 2026-02-19 17:47 | 49.40763 | 10.36421 | 22731 ft | 462 kts | 304° |
| 2026-02-19 17:47 | 49.42603 | 10.32377 | 22362 ft | 460 kts | 304° |
| 2026-02-19 17:47 | 49.44428 | 10.28364 | 21992 ft | 457 kts | 304° |
| 2026-02-19 17:47 | 49.46238 | 10.24380 | 21609 ft | 453 kts | 304° |
| 2026-02-19 17:48 | 49.47424 | 10.21766 | 21344 ft | 451 kts | 304° |
| 2026-02-19 17:48 | 49.51577 | 10.12599 | 20489 ft | 444 kts | 304° |
| 2026-02-19 17:48 | 49.53337 | 10.08703 | 20119 ft | 442 kts | 304° |
| 2026-02-19 17:49 | 49.55078 | 10.04858 | 19765 ft | 441 kts | 304° |
| 2026-02-19 17:49 | 49.56258 | 10.02240 | 19523 ft | 439 kts | 304° |
| 2026-02-19 17:49 | 49.57994 | 9.98382 | 19162 ft | 437 kts | 304° |
| 2026-02-19 17:49 | 49.59721 | 9.94535 | 18804 ft | 435 kts | 304° |
| 2026-02-19 17:50 | 49.61435 | 9.90714 | 18450 ft | 433 kts | 304° |
| 2026-02-19 17:50 | 49.63145 | 9.86898 | 18100 ft | 432 kts | 304° |
| 2026-02-19 17:50 | 49.64845 | 9.83097 | 17710 ft | 428 kts | 304° |
| 2026-02-19 17:50 | 49.66510 | 9.79374 | 17425 ft | 414 kts | 304° |
| 2026-02-19 17:51 | 49.68119 | 9.75769 | 17130 ft | 401 kts | 304° |
| 2026-02-19 17:51 | 49.69673 | 9.72283 | 16800 ft | 386 kts | 304° |
| 2026-02-19 17:51 | 49.71146 | 9.68973 | 16387 ft | 363 kts | 304° |
| 2026-02-19 17:51 | 49.72465 | 9.66004 | 16053 ft | 341 kts | 304° |
| 2026-02-19 17:52 | 49.73810 | 9.62975 | 15806 ft | 326 kts | 304° |
| 2026-02-19 17:52 | 49.76355 | 9.57255 | 15334 ft | 320 kts | 304° |
| 2026-02-19 17:52 | 49.77606 | 9.54416 | 15155 ft | 319 kts | 304° |
| 2026-02-19 17:53 | 49.78849 | 9.51599 | 14906 ft | 317 kts | 304° |
| 2026-02-19 17:53 | 49.80084 | 9.48800 | 14661 ft | 315 kts | 304° |
| 2026-02-19 17:53 | 49.81312 | 9.46013 | 14402 ft | 315 kts | 304° |
| 2026-02-19 17:53 | 49.82559 | 9.43181 | 14158 ft | 317 kts | 304° |
| 2026-02-19 17:54 | 49.83801 | 9.40361 | 13913 ft | 317 kts | 305° |
| 2026-02-19 17:54 | 49.85038 | 9.37546 | 13667 ft | 316 kts | 305° |
| 2026-02-19 17:54 | 49.86146 | 9.34705 | 13410 ft | 315 kts | 295° |
| 2026-02-19 17:54 | 49.86901 | 9.31475 | 13135 ft | 312 kts | 287° |
| 2026-02-19 17:55 | 49.87514 | 9.28275 | 12828 ft | 308 kts | 286° |
| 2026-02-19 17:55 | 49.88109 | 9.25112 | 12461 ft | 307 kts | 287° |
| 2026-02-19 17:55 | 49.88710 | 9.21932 | 12206 ft | 306 kts | 287° |
| 2026-02-19 17:55 | 49.89289 | 9.18873 | 12000 ft | 303 kts | 287° |
| 2026-02-19 17:56 | 49.89870 | 9.15711 | 11921 ft | 296 kts | 285° |
| 2026-02-19 17:56 | 49.90875 | 9.09622 | 11511 ft | 293 kts | 283° |
| 2026-02-19 17:56 | 49.91270 | 9.07027 | 11149 ft | 299 kts | 282° |